Time;durP1;ratioP1;P1;durP2;ratioP2;P2;SDS_P1;SDS_P2;PMS_P1;PMS_P2;Temp;Humidity;BMP_temperature;BMP_pressure;BME280_temperature;BME280_humidity;BME280_pressure;Samples;Min_cycle;Max_cycle;Signal;HPM_P1;HPM_P2
2022/04/30 00:01:23;;;;;;;7.20;3.65;;;;;;;12.87;46.82;102797.19;5125225;27;20070;-61
2022/04/30 00:03:51;;;;;;;7.07;3.97;;;;;;;12.85;47.13;102793.84;5134828;27;20084;-60
2022/04/30 00:06:19;;;;;;;4.63;3.50;;;;;;;12.82;47.09;102790.69;5124351;27;20098;-61
2022/04/30 00:08:48;;;;;;;6.47;4.20;;;;;;;12.80;47.17;102790.03;5122139;27;20043;-60
2022/04/30 00:11:16;;;;;;;6.43;3.33;;;;;;;12.82;47.16;102788.81;5131910;27;20086;-59
2022/04/30 00:13:44;;;;;;;7.10;3.50;;;;;;;12.81;47.22;102789.84;5125745;27;20055;-59
2022/04/30 00:16:12;;;;;;;8.90;3.42;;;;;;;12.80;46.84;102788.19;5125566;27;20051;-60
2022/04/30 00:18:40;;;;;;;8.65;4.13;;;;;;;12.78;47.11;102792.94;5130411;27;20075;-60
2022/04/30 00:21:07;;;;;;;6.43;3.50;;;;;;;12.76;47.13;102792.28;5136282;27;20481;-60
2022/04/30 00:23:35;;;;;;;6.05;3.83;;;;;;;12.74;47.25;102797.03;5128412;27;20392;-59
2022/04/30 00:26:04;;;;;;;6.43;3.50;;;;;;;12.71;46.82;102787.44;5131398;27;20059;-58
2022/04/30 00:28:32;;;;;;;7.45;3.20;;;;;;;12.72;47.38;102793.69;5124940;28;20464;-61
2022/04/30 00:31:00;;;;;;;8.20;3.10;;;;;;;12.70;47.08;102793.03;5127343;27;20075;-62
2022/04/30 00:33:28;;;;;;;6.25;3.15;;;;;;;12.70;47.13;102790.34;5128900;27;20074;-59
2022/04/30 00:35:55;;;;;;;5.65;2.90;;;;;;;12.64;46.81;102780.28;5123862;28;20455;-60
2022/04/30 00:38:23;;;;;;;4.45;2.67;;;;;;;12.69;46.95;102789.50;5124397;27;20043;-59
2022/04/30 00:40:51;;;;;;;10.77;3.88;;;;;;;12.69;47.00;102784.09;5134928;27;20087;-59
2022/04/30 00:43:21;;;;;;;6.00;3.08;;;;;;;12.68;46.98;102785.13;5127801;27;20151;-59
2022/04/30 00:45:49;;;;;;;5.80;3.70;;;;;;;12.68;46.93;102787.00;5118714;27;20076;-60
2022/04/30 00:48:17;;;;;;;6.78;3.50;;;;;;;12.67;47.08;102785.31;5125516;28;20047;-59
2022/04/30 00:50:45;;;;;;;5.97;2.90;;;;;;;12.66;46.86;102778.25;5125084;27;20486;-59
2022/04/30 00:53:16;;;;;;;6.45;3.53;;;;;;;12.66;46.94;102779.09;5127603;27;20114;-59
2022/04/30 00:55:45;;;;;;;7.93;3.20;;;;;;;12.63;47.18;102773.22;5135718;27;20063;-60
2022/04/30 00:58:15;;;;;;;5.00;3.03;;;;;;;12.62;47.31;102771.56;5123814;27;20071;-59
2022/04/30 01:00:47;;;;;;;4.88;3.13;;;;;;;12.61;47.23;102773.41;5116236;27;20097;-59
2022/04/30 01:03:14;;;;;;;5.13;2.80;;;;;;;12.59;47.21;102775.47;5133284;27;20047;-59
2022/04/30 01:05:42;;;;;;;8.27;3.22;;;;;;;12.55;47.00;102768.78;5126420;27;20058;-59
2022/04/30 01:08:10;;;;;;;12.77;3.35;;;;;;;12.54;47.38;102764.41;5118509;27;20075;-60
2022/04/30 01:10:38;;;;;;;4.32;2.72;;;;;;;12.53;47.11;102765.44;5135803;27;20043;-60
2022/04/30 01:13:08;;;;;;;6.22;3.10;;;;;;;12.53;47.19;102767.28;5124767;27;20111;-59
2022/04/30 01:15:37;;;;;;;7.88;2.90;;;;;;;12.53;47.31;102773.53;5124029;27;20492;-60
2022/04/30 01:18:07;;;;;;;8.45;3.22;;;;;;;12.50;47.21;102771.19;5119122;27;20039;-59
2022/04/30 01:20:36;;;;;;;5.05;2.50;;;;;;;12.49;47.42;102771.38;5132874;27;20044;-59
2022/04/30 01:23:06;;;;;;;5.82;2.75;;;;;;;12.47;47.31;102768.88;5134174;27;20075;-59
2022/04/30 01:25:35;;;;;;;8.50;3.55;;;;;;;12.48;47.37;102775.09;5123285;27;20139;-59
2022/04/30 01:28:04;;;;;;;8.45;3.20;;;;;;;12.46;47.30;102769.91;5128452;27;20082;-59
2022/04/30 01:30:32;;;;;;;7.70;2.67;;;;;;;12.44;47.48;102765.72;5123720;28;20146;-60
2022/04/30 01:38:32;;;;;;;6.20;2.85;;;;;;;12.41;47.45;102756.13;5128436;27;20512;-60
2022/04/30 01:41:00;;;;;;;4.10;2.63;;;;;;;12.41;47.47;102766.09;5125321;27;20107;-60
2022/04/30 01:43:28;;;;;;;6.63;2.58;;;;;;;12.39;47.47;102760.88;5120728;27;20051;-60
2022/04/30 01:45:56;;;;;;;7.63;2.58;;;;;;;12.37;47.66;102760.25;5129170;27;21254;-60
2022/04/30 01:48:25;;;;;;;6.18;2.58;;;;;;;12.35;47.58;102759.59;5122513;28;20068;-60
2022/04/30 01:50:54;;;;;;;4.32;2.25;;;;;;;12.33;47.69;102751.69;5130510;27;20039;-60
2022/04/30 01:53:22;;;;;;;5.32;2.50;;;;;;;12.31;47.62;102758.28;5129584;27;20061;-60
2022/04/30 01:55:52;;;;;;;4.13;2.45;;;;;;;12.30;47.66;102752.06;5133674;27;20086;-60
2022/04/30 01:58:20;;;;;;;6.97;3.20;;;;;;;12.29;47.66;102754.94;5118723;28;20146;-60
2022/04/30 02:00:47;;;;;;;4.70;2.90;;;;;;;12.26;47.85;102756.16;5122600;28;20100;-60
2022/04/30 02:03:16;;;;;;;3.78;2.17;;;;;;;12.24;48.02;102754.66;5128999;27;20071;-61
2022/04/30 02:05:45;;;;;;;6.15;2.65;;;;;;;12.20;48.12;102754.19;5117859;28;20135;-60
2022/04/30 02:08:15;;;;;;;4.95;2.50;;;;;;;12.18;48.05;102750.84;5122569;28;20160;-59
2022/04/30 02:10:43;;;;;;;6.28;2.63;;;;;;;12.18;48.29;102748.16;5126910;27;20055;-60
2022/04/30 02:13:14;;;;;;;6.05;3.05;;;;;;;12.17;47.93;102742.94;5123580;27;20067;-61
2022/04/30 02:15:46;;;;;;;8.90;3.92;;;;;;;12.16;48.12;102742.09;5128707;27;20155;-59
2022/04/30 02:18:14;;;;;;;6.80;2.58;;;;;;;12.14;48.48;102741.47;5125933;27;20051;-60
2022/04/30 02:20:43;;;;;;;5.00;2.40;;;;;;;12.12;48.40;102748.94;5132863;27;20079;-60
2022/04/30 02:23:11;;;;;;;5.18;2.75;;;;;;;12.11;48.44;102744.56;5118982;28;20059;-59
2022/04/30 02:25:39;;;;;;;6.13;2.63;;;;;;;12.08;48.48;102744.94;5129857;27;20055;-60
2022/04/30 02:28:09;;;;;;;6.53;3.47;;;;;;;12.06;48.58;102749.66;5130251;27;20085;-60
2022/04/30 02:30:39;;;;;;;3.78;2.60;;;;;;;12.06;48.44;102746.97;5121460;27;20083;-60
2022/04/30 02:33:09;;;;;;;6.00;3.47;;;;;;;12.04;48.73;102743.63;5119352;27;20127;-59
2022/04/30 02:35:38;;;;;;;6.32;2.80;;;;;;;12.04;48.35;102736.38;5133277;27;20051;-59
2022/04/30 02:38:08;;;;;;;12.90;2.88;;;;;;;12.03;48.56;102744.66;5129219;27;20051;-59
2022/04/30 02:40:37;;;;;;;9.70;3.08;;;;;;;12.02;48.61;102740.28;5135676;27;20082;-59
2022/04/30 02:43:06;;;;;;;11.90;3.35;;;;;;;12.02;48.67;102738.41;5120313;27;20083;-60
2022/04/30 02:45:36;;;;;;;8.20;3.63;;;;;;;12.01;48.63;102738.59;5117394;27;20103;-60
2022/04/30 02:48:07;;;;;;;5.50;3.13;;;;;;;11.98;48.63;102734.41;5117080;27;20534;-60
2022/04/30 02:50:36;;;;;;;6.20;3.38;;;;;;;11.95;48.76;102732.09;5134643;27;20542;-59
2022/04/30 02:53:04;;;;;;;5.57;2.83;;;;;;;11.94;48.84;102732.28;5134975;27;20072;-60
2022/04/30 02:55:33;;;;;;;8.35;3.60;;;;;;;11.93;48.86;102725.22;5120494;27;20039;-60
2022/04/30 03:00:47;;;;;;;7.00;3.55;;;;;;;11.92;48.94;102737.03;5122847;27;20090;-60
2022/04/30 03:03:17;;;;;;;11.02;4.07;;;;;;;11.90;48.81;102733.66;5132196;27;20051;-60
2022/04/30 03:05:47;;;;;;;7.40;3.35;;;;;;;11.88;48.71;102728.47;5129315;27;20052;-61
2022/04/30 03:08:19;;;;;;;8.52;3.83;;;;;;;11.91;48.81;102732.66;5121848;28;20112;-60
2022/04/30 03:10:48;;;;;;;6.95;3.40;;;;;;;11.90;48.90;102728.28;5121850;28;20071;-60
2022/04/30 03:13:17;;;;;;;6.20;3.45;;;;;;;11.87;48.76;102728.66;5122641;28;20186;-60
2022/04/30 03:15:46;;;;;;;6.50;3.80;;;;;;;11.89;48.82;102740.09;5108604;28;20063;-59
2022/04/30 03:23:44;;;;;;;9.15;3.60;;;;;;;11.81;48.71;102726.69;5098023;28;20078;-60
2022/04/30 03:26:13;;;;;;;7.75;3.88;;;;;;;11.86;48.71;102735.91;5134339;28;20043;-61
2022/04/30 03:28:42;;;;;;;8.55;3.35;;;;;;;11.85;48.77;102733.38;5118352;28;20047;-59
2022/04/30 03:31:11;;;;;;;8.52;3.63;;;;;;;11.76;48.79;102715.59;5122773;28;20063;-60
2022/04/30 03:33:40;;;;;;;6.22;3.67;;;;;;;11.85;48.66;102734.22;5123245;28;20075;-60
2022/04/30 03:36:12;;;;;;;6.07;3.40;;;;;;;11.86;48.73;102726.97;5122982;28;20048;-60
2022/04/30 03:38:40;;;;;;;6.32;3.38;;;;;;;11.85;48.59;102725.31;5122497;28;20043;-60
2022/04/30 03:41:08;;;;;;;6.00;3.85;;;;;;;11.84;48.89;102720.94;5129734;28;20063;-60
2022/04/30 03:43:36;;;;;;;7.88;4.00;;;;;;;11.83;48.98;102714.72;5122442;28;20123;-60
2022/04/30 03:46:05;;;;;;;9.48;4.30;;;;;;;11.80;49.02;102711.56;5132174;28;20082;-60
2022/04/30 03:48:33;;;;;;;7.57;4.07;;;;;;;11.77;48.97;102712.75;5116091;28;20063;-60
2022/04/30 03:51:01;;;;;;;7.63;3.85;;;;;;;11.77;49.27;102711.88;5123258;28;20070;-59
2022/04/30 03:53:30;;;;;;;7.78;4.10;;;;;;;11.76;49.15;102711.06;5122900;28;20055;-59
2022/04/30 03:56:00;;;;;;;9.68;4.15;;;;;;;11.73;49.45;102711.41;5124343;28;20457;-59
2022/04/30 03:58:29;;;;;;;6.13;3.90;;;;;;;11.72;49.19;102712.44;5122089;28;20048;-60
2022/04/30 04:00:57;;;;;;;8.93;4.43;;;;;;;11.72;49.20;102715.13;5133460;28;20055;-59
2022/04/30 04:03:25;;;;;;;10.15;4.55;;;;;;;11.70;49.26;102712.63;5134023;28;20205;-59
2022/04/30 04:05:53;;;;;;;7.45;4.47;;;;;;;11.69;49.22;102715.50;5129652;28;20078;-59
2022/04/30 04:08:21;;;;;;;7.00;4.25;;;;;;;11.66;49.33;102711.31;5114482;28;20043;-59
2022/04/30 04:10:50;;;;;;;6.88;4.07;;;;;;;11.67;49.33;102712.16;5127140;28;20047;-59
2022/04/30 04:18:51;;;;;;;6.82;4.30;;;;;;;11.64;49.62;102720.59;5131495;28;20043;-59
2022/04/30 04:21:19;;;;;;;8.85;5.00;;;;;;;11.62;49.44;102722.63;5117537;28;20082;-60
2022/04/30 04:26:34;;;;;;;10.05;5.20;;;;;;;11.60;49.45;102725.50;5133440;27;20047;-60
2022/04/30 04:29:02;;;;;;;7.10;4.38;;;;;;;11.60;49.31;102728.22;5125911;28;20082;-60
2022/04/30 04:31:29;;;;;;;7.80;4.25;;;;;;;11.57;49.55;102720.50;5115115;28;20075;-60
2022/04/30 04:33:57;;;;;;;6.95;4.50;;;;;;;11.58;49.33;102732.09;5122185;28;20056;-60
2022/04/30 04:36:25;;;;;;;8.85;5.25;;;;;;;11.57;49.53;102728.56;5122152;28;20127;-60
2022/04/30 04:38:53;;;;;;;7.47;4.63;;;;;;;11.54;49.58;102728.09;5124600;27;20099;-60
2022/04/30 04:41:20;;;;;;;7.97;4.68;;;;;;;11.54;49.37;102730.78;5124264;28;20066;-60
2022/04/30 04:43:49;;;;;;;8.73;4.47;;;;;;;11.54;49.33;102730.78;5126958;27;20051;-60
2022/04/30 04:46:17;;;;;;;9.23;4.85;;;;;;;11.53;49.50;102739.88;5125210;27;20071;-60
2022/04/30 04:48:45;;;;;;;5.57;4.13;;;;;;;11.54;49.37;102741.56;5113878;27;20044;-60
2022/04/30 04:51:13;;;;;;;11.02;5.13;;;;;;;11.52;49.79;102740.91;5130131;27;20475;-61
2022/04/30 04:53:41;;;;;;;8.50;4.78;;;;;;;11.50;49.59;102742.94;5135842;27;20047;-60
2022/04/30 04:56:08;;;;;;;8.10;4.20;;;;;;;11.49;49.51;102742.09;5120448;27;20547;-60
2022/04/30 04:58:36;;;;;;;9.20;4.32;;;;;;;11.49;49.57;102741.28;5125740;27;20074;-60
2022/04/30 05:01:05;;;;;;;7.88;4.50;;;;;;;11.49;49.61;102754.72;5125706;27;20047;-60
2022/04/30 05:03:33;;;;;;;9.82;4.85;;;;;;;11.49;49.72;102760.94;5141783;27;20065;-60
2022/04/30 05:06:01;;;;;;;9.15;4.82;;;;;;;11.49;49.81;102754.72;5123453;28;20056;-61
2022/04/30 05:08:28;;;;;;;7.47;4.80;;;;;;;11.48;49.88;102763.81;5123415;27;20052;-64
2022/04/30 05:10:56;;;;;;;6.60;4.78;;;;;;;11.47;49.85;102763.00;5124846;28;20039;-60
2022/04/30 05:13:24;;;;;;;10.23;4.75;;;;;;;11.46;49.84;102755.09;5119726;27;20102;-60
2022/04/30 05:15:52;;;;;;;8.80;4.65;;;;;;;11.45;49.88;102761.50;5115936;28;20044;-60
2022/04/30 05:18:21;;;;;;;8.52;4.85;;;;;;;11.45;49.90;102758.81;5116052;27;20097;-60
2022/04/30 05:20:49;;;;;;;8.57;4.47;;;;;;;11.38;50.14;102756.84;5132984;27;20128;-60
2022/04/30 05:23:17;;;;;;;8.65;4.57;;;;;;;11.43;50.22;102760.84;5126177;27;20044;-60
2022/04/30 05:25:45;;;;;;;9.32;5.18;;;;;;;11.39;50.39;102763.91;5136410;27;20484;-60
2022/04/30 05:28:13;;;;;;;9.60;4.80;;;;;;;11.39;50.36;102763.06;5125749;27;20097;-60
2022/04/30 05:30:41;;;;;;;9.50;4.63;;;;;;;11.38;50.71;102769.47;5126910;27;20046;-59
2022/04/30 05:33:08;;;;;;;11.30;5.40;;;;;;;11.37;50.37;102763.22;4761758;27;10000282;-59
2022/04/30 05:35:37;;;;;;;9.05;4.95;;;;;;;11.38;50.35;102764.06;5127305;27;20051;-59
2022/04/30 05:38:05;;;;;;;12.88;5.70;;;;;;;11.38;51.04;102764.91;5114411;28;20062;-60
2022/04/30 05:40:33;;;;;;;11.50;5.97;;;;;;;11.39;50.73;102765.75;5129346;27;20549;-60
2022/04/30 05:43:01;;;;;;;11.90;5.18;;;;;;;11.39;50.59;102768.44;5121949;27;20078;-63
2022/04/30 05:45:29;;;;;;;9.57;5.07;;;;;;;11.38;50.92;102756.84;5119960;27;20044;-59
2022/04/30 05:47:56;;;;;;;10.07;5.38;;;;;;;11.40;50.76;102762.03;5118669;27;20131;-60
2022/04/30 05:50:25;;;;;;;6.82;4.88;;;;;;;11.41;50.81;102766.41;5115032;27;20102;-59
2022/04/30 05:52:54;;;;;;;7.07;5.05;;;;;;;11.41;50.84;102763.72;5117038;27;20056;-60
2022/04/30 05:55:23;;;;;;;9.00;4.60;;;;;;;11.44;50.71;102770.59;5119979;27;20066;-59
2022/04/30 05:57:51;;;;;;;7.68;4.95;;;;;;;11.43;50.69;102767.06;5118346;27;20058;-61
2022/04/30 06:00:19;;;;;;;10.30;5.05;;;;;;;11.43;51.18;102768.91;5115796;27;20079;-58
2022/04/30 06:02:48;;;;;;;8.40;4.47;;;;;;;11.41;50.98;102767.25;5112452;27;20095;-59
2022/04/30 06:05:17;;;;;;;10.60;5.10;;;;;;;11.41;51.08;102777.16;5105965;27;20047;-60
2022/04/30 06:07:44;;;;;;;7.72;5.40;;;;;;;11.40;51.35;102770.94;5100066;27;20222;-60
2022/04/30 06:10:14;;;;;;;8.05;4.85;;;;;;;11.40;50.96;102780.88;5127459;27;20142;-59
2022/04/30 06:12:41;;;;;;;8.32;5.13;;;;;;;11.41;51.43;102780.69;5119553;27;20043;-59
2022/04/30 06:15:10;;;;;;;11.52;4.97;;;;;;;11.40;51.24;102776.34;5113674;28;20054;-58
2022/04/30 06:17:37;;;;;;;13.20;5.32;;;;;;;11.42;51.31;102778.84;5107751;28;20082;-59
2022/04/30 06:20:06;;;;;;;7.80;4.97;;;;;;;11.44;51.42;102776.81;5113715;28;20110;-59
2022/04/30 06:22:34;;;;;;;11.05;5.07;;;;;;;11.46;51.32;102774.78;5119719;27;20067;-60
2022/04/30 06:25:02;;;;;;;9.70;4.68;;;;;;;11.48;51.44;102778.13;5114901;27;20180;-59
2022/04/30 06:27:31;;;;;;;14.30;4.93;;;;;;;11.53;52.07;102777.59;5118923;27;20050;-59
2022/04/30 06:29:59;;;;;;;15.10;4.95;;;;;;;11.52;52.41;102782.13;5119591;28;20071;-59
2022/04/30 06:32:27;;;;;;;8.52;5.18;;;;;;;11.48;52.03;102767.34;5109992;27;21431;-59
2022/04/30 06:34:55;;;;;;;12.27;5.32;;;;;;;11.54;51.87;102777.41;5117323;28;20070;-59
2022/04/30 06:37:23;;;;;;;8.25;5.03;;;;;;;11.57;51.97;102776.22;5120124;27;20044;-59
2022/04/30 06:39:51;;;;;;;8.63;4.43;;;;;;;11.59;51.83;102779.56;5102138;28;20119;-58
2022/04/30 06:42:19;;;;;;;8.52;4.53;;;;;;;11.62;51.84;102774.66;5117371;28;20047;-59
2022/04/30 06:44:48;;;;;;;11.77;4.70;;;;;;;11.66;51.82;102775.97;5119507;27;20078;-58
2022/04/30 06:47:16;;;;;;;7.07;4.32;;;;;;;11.70;51.59;102777.25;5114714;28;20504;-59
2022/04/30 06:49:44;;;;;;;10.10;5.05;;;;;;;11.72;51.67;102769.84;5111492;28;20144;-60
2022/04/30 06:52:11;;;;;;;7.10;4.82;;;;;;;11.75;51.65;102763.25;5117844;28;20199;-59
2022/04/30 06:57:26;;;;;;;6.38;3.97;;;;;;;11.82;51.51;102772.31;5109775;27;20051;-59
2022/04/30 06:59:56;;;;;;;9.02;4.75;;;;;;;11.85;51.34;102774.63;5118423;27;20113;-59
2022/04/30 07:02:26;;;;;;;9.32;4.18;;;;;;;11.87;51.25;102769.91;5104809;27;20269;-58
2022/04/30 07:04:54;;;;;;;7.80;4.95;;;;;;;11.89;51.23;102772.41;5114231;27;20066;-60
2022/04/30 07:07:23;;;;;;;7.88;4.10;;;;;;;11.91;51.33;102773.91;5117225;28;20082;-60
2022/04/30 07:09:51;;;;;;;8.57;4.20;;;;;;;11.96;51.18;102781.44;5116958;28;20125;-59
2022/04/30 07:12:19;;;;;;;8.55;4.28;;;;;;;11.97;51.16;102778.56;5114485;28;20058;-60
2022/04/30 07:14:48;;;;;;;7.88;3.95;;;;;;;12.01;51.28;102773.63;5110997;28;20134;-59
2022/04/30 07:17:17;;;;;;;6.25;3.65;;;;;;;12.02;51.14;102778.84;5109871;28;20041;-60
2022/04/30 07:19:45;;;;;;;5.50;4.13;;;;;;;12.04;51.14;102775.97;5107416;28;20052;-60
2022/04/30 07:22:13;;;;;;;7.78;4.22;;;;;;;12.05;51.15;102774.94;5118306;28;20063;-60
2022/04/30 07:24:41;;;;;;;9.10;4.78;;;;;;;12.06;51.13;102787.41;5119190;28;20071;-59
2022/04/30 07:27:09;;;;;;;7.60;4.25;;;;;;;12.09;51.16;102775.41;5121105;28;20188;-59
2022/04/30 07:29:38;;;;;;;6.43;3.63;;;;;;;12.09;51.20;102780.81;4752819;28;9999931;-60
2022/04/30 07:32:08;;;;;;;6.70;3.90;;;;;;;12.09;51.01;102781.63;5108269;28;20040;-60
2022/04/30 07:34:39;;;;;;;6.50;3.35;;;;;;;12.06;51.27;102776.63;5119802;28;20055;-59
2022/04/30 07:37:10;;;;;;;7.47;3.92;;;;;;;12.05;51.08;102780.34;5109886;28;20043;-60
2022/04/30 07:39:39;;;;;;;8.05;3.85;;;;;;;12.03;51.21;102771.59;5122959;28;20139;-59
2022/04/30 07:42:08;;;;;;;8.73;4.32;;;;;;;11.91;51.33;102754.22;5107555;28;20510;-60
2022/04/30 07:44:36;;;;;;;8.27;4.03;;;;;;;12.00;51.41;102775.50;5109266;28;20043;-59
2022/04/30 07:47:04;;;;;;;9.70;4.63;;;;;;;11.97;51.35;102775.03;5115981;28;20079;-60
2022/04/30 07:49:32;;;;;;;8.90;4.10;;;;;;;11.96;51.43;102773.34;5114476;28;20048;-59
2022/04/30 07:52:01;;;;;;;7.40;5.00;;;;;;;11.98;51.56;102774.84;5127725;28;20055;-60
2022/04/30 07:54:28;;;;;;;7.63;4.75;;;;;;;11.98;51.42;102772.16;5126543;28;20047;-62
2022/04/30 07:56:59;;;;;;;10.32;4.22;;;;;;;11.98;51.62;102769.47;5121523;27;20134;-61
2022/04/30 07:59:28;;;;;;;8.40;3.90;;;;;;;11.99;51.37;102765.75;5118580;27;20051;-65
2022/04/30 08:01:55;;;;;;;7.50;3.95;;;;;;;12.00;51.50;102764.72;5118763;27;20108;-60
2022/04/30 08:04:23;;;;;;;6.68;3.65;;;;;;;12.02;51.30;102759.16;5130663;27;20511;-60
2022/04/30 08:06:51;;;;;;;6.28;3.42;;;;;;;12.02;51.16;102761.84;5124585;28;20115;-60
2022/04/30 08:09:20;;;;;;;9.48;3.80;;;;;;;12.05;51.30;102769.56;5122098;27;20131;-60
2022/04/30 08:11:48;;;;;;;5.75;3.28;;;;;;;12.05;51.41;102772.25;5127424;28;20040;-61
2022/04/30 08:14:16;;;;;;;7.97;3.28;;;;;;;12.05;51.62;102762.31;5122089;28;20055;-69
2022/04/30 08:16:43;;;;;;;11.00;4.40;;;;;;;12.01;51.55;102752.91;5121537;27;20156;-69
2022/04/30 08:19:11;;;;;;;7.72;3.92;;;;;;;12.07;51.39;102761.28;5123584;27;20472;-68
2022/04/30 08:21:39;;;;;;;7.13;3.75;;;;;;;12.10;51.44;102766.31;5127246;27;20071;-65
2022/04/30 08:24:28;;;;;;;8.18;3.20;;;;;;;12.12;51.50;102753.47;5119805;28;20048;-68
2022/04/30 08:26:56;;;;;;;6.35;3.20;;;;;;;12.12;51.29;102759.72;5127194;28;20044;-69
2022/04/30 08:29:26;;;;;;;6.53;2.97;;;;;;;12.13;51.30;102758.69;5124369;28;20150;-69
2022/04/30 08:31:53;;;;;;;7.10;3.15;;;;;;;12.14;51.40;102752.25;5124862;27;20071;-69
2022/04/30 08:34:21;;;;;;;11.18;4.60;;;;;;;12.16;51.22;102762.84;5126037;28;20063;-68
2022/04/30 08:36:49;;;;;;;6.45;3.08;;;;;;;12.15;51.16;102756.63;5111504;28;20207;-67
2022/04/30 08:39:17;;;;;;;6.40;2.88;;;;;;;12.16;51.21;102741.28;5125817;28;20047;-69
2022/04/30 08:41:46;;;;;;;5.53;3.15;;;;;;;12.17;51.21;102740.25;5113990;27;20048;-70
2022/04/30 08:44:15;;;;;;;8.45;3.92;;;;;;;12.19;51.21;102744.44;5116876;28;20052;-69
2022/04/30 08:46:46;;;;;;;8.10;3.05;;;;;;;12.17;50.94;102737.56;5121817;28;20079;-69
2022/04/30 08:49:14;;;;;;;8.55;3.67;;;;;;;12.18;51.19;102734.69;5124035;27;20101;-70
2022/04/30 08:51:41;;;;;;;8.32;3.00;;;;;;;12.24;51.10;102742.03;5127323;27;20039;-70
2022/04/30 08:54:09;;;;;;;5.57;2.70;;;;;;;12.25;50.88;102740.16;5115491;27;20189;-70
2022/04/30 08:56:37;;;;;;;6.90;2.42;;;;;;;12.25;50.93;102741.00;5112863;27;20078;-70
2022/04/30 08:59:06;;;;;;;9.52;3.10;;;;;;;12.26;50.84;102728.34;5114468;28;20252;-70
2022/04/30 09:01:45;;;;;;;6.05;3.40;;;;;;;12.25;50.84;102729.38;5123593;27;20048;-68
2022/04/30 09:04:13;;;;;;;5.57;2.67;;;;;;;12.26;50.73;102726.50;5123857;28;20039;-70
2022/04/30 09:06:45;;;;;;;5.00;2.63;;;;;;;12.28;50.54;102729.84;5117576;28;20076;-69
2022/04/30 09:09:22;;;;;;;4.63;3.10;;;;;;;12.29;50.51;102722.59;5117061;28;20603;-69
2022/04/30 09:11:50;;;;;;;4.65;2.60;;;;;;;12.29;50.54;102728.81;5124645;28;20082;-69
2022/04/30 09:14:25;;;;;;;4.93;2.55;;;;;;;12.28;50.25;102724.44;5119695;27;20062;-68
2022/04/30 09:17:04;;;;;;;8.35;3.08;;;;;;;12.19;50.18;102712.09;5123587;27;20070;-71
2022/04/30 09:19:33;;;;;;;9.00;3.28;;;;;;;12.27;50.34;102716.53;5119215;27;20495;-69
2022/04/30 09:22:01;;;;;;;3.88;2.72;;;;;;;12.26;50.55;102714.88;5120593;28;20495;-69
2022/04/30 09:24:29;;;;;;;9.25;3.35;;;;;;;12.28;50.64;102719.06;5118475;27;20048;-69
2022/04/30 09:27:03;;;;;;;8.18;2.92;;;;;;;12.30;50.52;102716.16;5105279;27;20107;-70
2022/04/30 09:29:32;;;;;;;6.78;3.28;;;;;;;12.28;50.41;102715.53;5116595;27;20072;-70
2022/04/30 09:32:00;;;;;;;7.25;3.58;;;;;;;12.29;50.67;102709.09;5123119;27;20104;-70
2022/04/30 09:37:45;;;;;;;9.52;3.42;;;;;;;12.20;50.70;102705.69;5105269;27;20044;-67
2022/04/30 09:40:20;;;;;;;6.30;2.88;;;;;;;12.28;50.78;102713.66;5105689;27;20051;-64
2022/04/30 09:42:48;;;;;;;6.00;3.13;;;;;;;12.28;50.78;102712.81;5109596;27;20081;-66
2022/04/30 09:45:26;;;;;;;6.63;2.92;;;;;;;12.31;50.78;102709.75;5109854;27;20066;-67
2022/04/30 09:47:55;;;;;;;6.10;3.40;;;;;;;12.32;50.69;102712.25;5105097;27;20075;-67
2022/04/30 09:55:57;;;;;;;7.73;3.27;;;;;;;12.30;50.58;102702.69;5117779;27;20453;-69
2022/04/30 09:58:27;;;;;;;6.25;3.30;;;;;;;12.31;50.63;102705.19;5111428;27;20047;-69
2022/04/30 10:00:58;;;;;;;5.07;2.50;;;;;;;12.32;50.54;102697.94;5105975;27;20075;-69
2022/04/30 10:03:29;;;;;;;4.38;2.70;;;;;;;12.30;50.60;102708.09;5117606;27;20132;-66
2022/04/30 10:06:01;;;;;;;5.68;3.17;;;;;;;12.30;50.65;102700.00;5112955;27;20054;-65
2022/04/30 10:08:32;;;;;;;5.90;3.22;;;;;;;12.33;50.33;102696.91;5120895;27;20067;-66
2022/04/30 10:11:25;;;;;;;8.30;3.08;;;;;;;12.34;50.35;102694.03;5127949;27;20083;-66
2022/04/30 10:14:06;;;;;;;5.60;3.22;;;;;;;12.35;50.60;102693.00;5123592;28;20137;-67
2022/04/30 10:16:37;;;;;;;8.63;2.97;;;;;;;12.40;50.60;102687.06;5113653;27;20072;-65
2022/04/30 10:19:15;;;;;;;5.03;3.00;;;;;;;12.43;50.43;102686.69;5102082;27;20043;-64
2022/04/30 10:21:42;;;;;;;5.95;3.10;;;;;;;12.46;50.10;102690.84;5106947;28;20063;-66
2022/04/30 10:24:12;;;;;;;7.78;3.72;;;;;;;12.47;50.46;102684.44;5112546;27;21563;-64
2022/04/30 10:26:58;;;;;;;9.07;3.38;;;;;;;12.50;50.35;102686.75;5104714;27;20081;-65
2022/04/30 10:29:26;;;;;;;6.13;2.88;;;;;;;12.50;50.05;102681.38;5121240;27;20299;-66
2022/04/30 10:31:55;;;;;;;4.93;3.40;;;;;;;12.50;50.02;102684.06;5119163;27;20040;-65
2022/04/30 10:34:29;;;;;;;7.07;3.58;;;;;;;12.51;49.78;102681.19;5121809;28;20052;-66
2022/04/30 10:37:00;;;;;;;6.90;3.17;;;;;;;12.49;49.88;102679.69;5121827;27;20059;-67
2022/04/30 10:39:28;;;;;;;5.18;3.08;;;;;;;12.52;49.78;102665.81;5124380;27;20552;-67
2022/04/30 10:41:57;;;;;;;5.93;2.92;;;;;;;12.56;49.81;102678.75;5121034;27;20066;-66
2022/04/30 10:44:28;;;;;;;4.97;2.92;;;;;;;12.59;49.54;102672.97;5121831;27;20048;-66
2022/04/30 10:47:08;;;;;;;4.47;2.83;;;;;;;12.59;49.29;102675.66;5120845;28;20050;-67
2022/04/30 10:49:36;;;;;;;4.40;2.80;;;;;;;12.62;48.82;102671.75;5120958;27;20040;-67
2022/04/30 10:52:04;;;;;;;4.82;2.53;;;;;;;12.63;49.02;102662.63;5114291;27;20272;-67
2022/04/30 10:54:34;;;;;;;4.95;2.72;;;;;;;12.64;49.15;102654.34;5120839;27;20048;-65
2022/04/30 10:57:04;;;;;;;3.88;2.85;;;;;;;12.66;48.48;102648.75;5122282;27;20055;-66
2022/04/30 10:59:31;;;;;;;6.10;2.95;;;;;;;12.67;48.84;102659.38;5122473;27;20064;-67
2022/04/30 11:02:01;;;;;;;7.10;2.72;;;;;;;12.70;48.80;102650.88;5123609;27;20059;-67
2022/04/30 11:04:30;;;;;;;5.88;2.83;;;;;;;12.71;47.97;102651.72;5113505;27;20068;-65
2022/04/30 11:07:00;;;;;;;4.40;2.60;;;;;;;12.73;48.28;102649.66;5123542;27;20044;-67
2022/04/30 11:09:28;;;;;;;5.63;2.80;;;;;;;12.74;48.02;102640.53;5126140;27;20507;-63
2022/04/30 11:11:57;;;;;;;4.45;2.75;;;;;;;12.63;47.84;102614.91;5120008;27;20051;-66
2022/04/30 11:14:26;;;;;;;5.00;2.45;;;;;;;12.77;47.94;102640.16;5127953;27;20082;-66
2022/04/30 11:16:54;;;;;;;6.15;2.88;;;;;;;12.80;47.60;102644.34;5120604;28;20058;-67
2022/04/30 11:19:24;;;;;;;4.55;2.42;;;;;;;12.80;47.20;102641.63;5120343;27;20048;-66
2022/04/30 11:21:53;;;;;;;4.32;2.35;;;;;;;12.82;47.34;102636.88;5129502;27;20481;-67
2022/04/30 11:24:25;;;;;;;4.93;2.33;;;;;;;12.84;47.06;102638.38;5121545;28;20105;-67
2022/04/30 11:26:58;;;;;;;5.53;2.50;;;;;;;12.85;47.05;102636.50;5116804;28;20047;-66
2022/04/30 11:29:27;;;;;;;5.07;2.50;;;;;;;12.86;47.25;102630.91;5117550;28;20058;-67
2022/04/30 11:31:57;;;;;;;8.52;2.40;;;;;;;12.91;47.18;102630.34;5123240;27;20054;-66
2022/04/30 11:34:27;;;;;;;7.57;2.50;;;;;;;12.91;46.86;102619.53;5130459;27;20108;-66
2022/04/30 11:36:57;;;;;;;5.25;2.72;;;;;;;12.95;47.24;102621.66;5125469;27;20048;-66
2022/04/30 11:39:25;;;;;;;5.90;2.45;;;;;;;12.99;46.81;102622.09;5125586;27;20075;-69
2022/04/30 11:41:54;;;;;;;5.95;2.78;;;;;;;12.95;46.44;102602.75;5118308;28;20056;-69
2022/04/30 11:44:24;;;;;;;3.28;2.40;;;;;;;13.00;46.51;102611.09;4769932;27;9999787;-68
2022/04/30 11:46:53;;;;;;;5.05;2.13;;;;;;;13.02;46.24;102609.06;5132141;27;20047;-68
2022/04/30 11:49:22;;;;;;;2.92;2.15;;;;;;;13.04;46.26;102603.47;5116424;28;20047;-69
2022/04/30 11:52:08;;;;;;;6.32;2.25;;;;;;;13.07;46.40;102594.97;5108193;28;20132;-69
2022/04/30 11:54:38;;;;;;;3.72;1.95;;;;;;;13.11;45.68;102598.94;5121383;27;20043;-67
2022/04/30 11:57:06;;;;;;;3.78;2.10;;;;;;;13.14;45.79;102581.53;5123776;27;20557;-68
2022/04/30 11:59:36;;;;;;;3.03;2.08;;;;;;;13.16;45.56;102580.31;5132883;27;20361;-69
2022/04/30 12:02:05;;;;;;;4.10;2.22;;;;;;;13.19;45.09;102587.19;5121082;28;20096;-66
2022/04/30 12:04:35;;;;;;;3.30;2.35;;;;;;;13.22;45.29;102584.09;5122840;27;20137;-68
2022/04/30 12:07:06;;;;;;;4.65;2.22;;;;;;;13.25;45.59;102579.16;5130122;27;20059;-69